sensor_id;sensor_type;location;lat;lon;timestamp;P1;durP1;ratioP1;P2;durP2;ratioP2
77136;SDS011;66102;48.542;-2.970;2023-04-19T00:01:52;65.57;;;33.33;;
77136;SDS011;66102;48.542;-2.970;2023-04-19T00:04:18;76.53;;;37.65;;
77136;SDS011;66102;48.542;-2.970;2023-04-19T00:06:45;74.80;;;34.40;;
77136;SDS011;66102;48.542;-2.970;2023-04-19T00:09:11;78.97;;;37.97;;
77136;SDS011;66102;48.542;-2.970;2023-04-19T00:11:37;78.35;;;37.53;;
77136;SDS011;66102;48.542;-2.970;2023-04-19T00:14:03;77.22;;;37.85;;
77136;SDS011;66102;48.542;-2.970;2023-04-19T00:16:30;86.70;;;38.97;;
77136;SDS011;66102;48.542;-2.970;2023-04-19T00:18:56;81.03;;;37.58;;
77136;SDS011;66102;48.542;-2.970;2023-04-19T00:21:22;77.95;;;38.08;;
77136;SDS011;66102;48.542;-2.970;2023-04-19T00:23:48;80.30;;;35.63;;
77136;SDS011;66102;48.542;-2.970;2023-04-19T00:26:14;75.50;;;37.17;;
77136;SDS011;66102;48.542;-2.970;2023-04-19T00:28:40;82.68;;;39.40;;
77136;SDS011;66102;48.542;-2.970;2023-04-19T00:31:06;70.93;;;33.92;;
77136;SDS011;66102;48.542;-2.970;2023-04-19T00:33:32;82.00;;;38.55;;
77136;SDS011;66102;48.542;-2.970;2023-04-19T00:35:58;70.18;;;35.72;;
77136;SDS011;66102;48.542;-2.970;2023-04-19T00:38:24;82.82;;;37.53;;
77136;SDS011;66102;48.542;-2.970;2023-04-19T00:40:50;86.55;;;37.67;;
77136;SDS011;66102;48.542;-2.970;2023-04-19T00:43:19;75.63;;;35.72;;
77136;SDS011;66102;48.542;-2.970;2023-04-19T00:45:45;77.45;;;38.08;;
77136;SDS011;66102;48.542;-2.970;2023-04-19T00:48:12;71.30;;;35.30;;
77136;SDS011;66102;48.542;-2.970;2023-04-19T00:50:39;83.60;;;37.00;;
77136;SDS011;66102;48.542;-2.970;2023-04-19T00:53:06;77.22;;;35.50;;
77136;SDS011;66102;48.542;-2.970;2023-04-19T00:55:32;67.25;;;33.38;;
77136;SDS011;66102;48.542;-2.970;2023-04-19T00:57:58;74.97;;;36.17;;
77136;SDS011;66102;48.542;-2.970;2023-04-19T01:00:24;84.05;;;36.13;;
77136;SDS011;66102;48.542;-2.970;2023-04-19T01:02:51;73.45;;;38.00;;
77136;SDS011;66102;48.542;-2.970;2023-04-19T01:05:17;83.93;;;40.40;;
77136;SDS011;66102;48.542;-2.970;2023-04-19T01:07:43;70.82;;;35.25;;
77136;SDS011;66102;48.542;-2.970;2023-04-19T01:10:09;68.22;;;33.65;;
77136;SDS011;66102;48.542;-2.970;2023-04-19T01:12:36;67.57;;;33.50;;
77136;SDS011;66102;48.542;-2.970;2023-04-19T01:15:02;66.05;;;31.50;;
77136;SDS011;66102;48.542;-2.970;2023-04-19T01:17:29;63.83;;;29.58;;
77136;SDS011;66102;48.542;-2.970;2023-04-19T01:20:00;75.32;;;32.97;;
77136;SDS011;66102;48.542;-2.970;2023-04-19T01:22:27;68.82;;;31.42;;
77136;SDS011;66102;48.542;-2.970;2023-04-19T01:24:54;63.25;;;31.02;;
77136;SDS011;66102;48.542;-2.970;2023-04-19T01:27:20;66.07;;;32.22;;
77136;SDS011;66102;48.542;-2.970;2023-04-19T01:29:47;59.20;;;29.80;;
77136;SDS011;66102;48.542;-2.970;2023-04-19T01:32:13;58.88;;;27.42;;
77136;SDS011;66102;48.542;-2.970;2023-04-19T01:34:41;58.55;;;29.98;;
77136;SDS011;66102;48.542;-2.970;2023-04-19T01:37:07;65.18;;;31.63;;
77136;SDS011;66102;48.542;-2.970;2023-04-19T01:39:33;67.35;;;29.48;;
77136;SDS011;66102;48.542;-2.970;2023-04-19T01:41:59;61.75;;;31.15;;
77136;SDS011;66102;48.542;-2.970;2023-04-19T01:44:27;60.42;;;30.55;;
77136;SDS011;66102;48.542;-2.970;2023-04-19T01:46:53;56.85;;;29.63;;
77136;SDS011;66102;48.542;-2.970;2023-04-19T01:49:20;61.78;;;29.08;;
77136;SDS011;66102;48.542;-2.970;2023-04-19T01:51:46;57.33;;;27.77;;
77136;SDS011;66102;48.542;-2.970;2023-04-19T01:54:12;55.58;;;25.55;;
77136;SDS011;66102;48.542;-2.970;2023-04-19T01:56:38;62.58;;;29.10;;
77136;SDS011;66102;48.542;-2.970;2023-04-19T01:59:04;66.07;;;32.03;;
77136;SDS011;66102;48.542;-2.970;2023-04-19T02:01:30;48.38;;;25.67;;
77136;SDS011;66102;48.542;-2.970;2023-04-19T02:03:56;58.58;;;27.30;;
77136;SDS011;66102;48.542;-2.970;2023-04-19T02:06:22;59.72;;;29.00;;
77136;SDS011;66102;48.542;-2.970;2023-04-19T02:08:48;57.67;;;28.77;;
77136;SDS011;66102;48.542;-2.970;2023-04-19T02:11:14;63.97;;;31.23;;
77136;SDS011;66102;48.542;-2.970;2023-04-19T02:13:40;58.60;;;28.80;;
77136;SDS011;66102;48.542;-2.970;2023-04-19T02:16:06;63.63;;;28.15;;
77136;SDS011;66102;48.542;-2.970;2023-04-19T02:18:32;61.83;;;29.27;;
77136;SDS011;66102;48.542;-2.970;2023-04-19T02:21:02;55.67;;;27.20;;
77136;SDS011;66102;48.542;-2.970;2023-04-19T02:23:29;61.05;;;30.63;;
77136;SDS011;66102;48.542;-2.970;2023-04-19T02:25:55;65.72;;;29.90;;
77136;SDS011;66102;48.542;-2.970;2023-04-19T02:28:21;61.38;;;30.55;;
77136;SDS011;66102;48.542;-2.970;2023-04-19T02:30:47;66.45;;;32.53;;
77136;SDS011;66102;48.542;-2.970;2023-04-19T02:33:13;65.53;;;31.95;;
77136;SDS011;66102;48.542;-2.970;2023-04-19T02:35:39;72.40;;;31.60;;
77136;SDS011;66102;48.542;-2.970;2023-04-19T02:38:06;65.40;;;31.25;;
77136;SDS011;66102;48.542;-2.970;2023-04-19T02:40:32;65.40;;;31.35;;
77136;SDS011;66102;48.542;-2.970;2023-04-19T02:42:58;68.25;;;32.05;;
77136;SDS011;66102;48.542;-2.970;2023-04-19T02:45:24;72.97;;;35.13;;
77136;SDS011;66102;48.542;-2.970;2023-04-19T02:47:50;64.22;;;31.52;;
77136;SDS011;66102;48.542;-2.970;2023-04-19T02:50:16;68.90;;;32.25;;
77136;SDS011;66102;48.542;-2.970;2023-04-19T02:52:42;72.63;;;32.75;;
77136;SDS011;66102;48.542;-2.970;2023-04-19T02:55:08;62.53;;;31.88;;
77136;SDS011;66102;48.542;-2.970;2023-04-19T02:57:34;66.32;;;30.83;;
77136;SDS011;66102;48.542;-2.970;2023-04-19T03:00:00;75.47;;;32.33;;
77136;SDS011;66102;48.542;-2.970;2023-04-19T03:02:26;69.72;;;31.83;;
77136;SDS011;66102;48.542;-2.970;2023-04-19T03:04:52;71.25;;;34.35;;
77136;SDS011;66102;48.542;-2.970;2023-04-19T03:07:19;71.90;;;34.03;;
77136;SDS011;66102;48.542;-2.970;2023-04-19T03:09:45;65.50;;;31.13;;
77136;SDS011;66102;48.542;-2.970;2023-04-19T03:12:11;74.93;;;33.45;;
77136;SDS011;66102;48.542;-2.970;2023-04-19T03:14:37;73.95;;;34.72;;
77136;SDS011;66102;48.542;-2.970;2023-04-19T03:17:03;75.43;;;32.88;;
77136;SDS011;66102;48.542;-2.970;2023-04-19T03:19:29;71.20;;;34.30;;
77136;SDS011;66102;48.542;-2.970;2023-04-19T03:21:55;71.13;;;32.75;;
77136;SDS011;66102;48.542;-2.970;2023-04-19T03:24:28;60.30;;;32.08;;
77136;SDS011;66102;48.542;-2.970;2023-04-19T03:26:54;61.35;;;29.33;;
77136;SDS011;66102;48.542;-2.970;2023-04-19T03:29:20;68.93;;;31.42;;
77136;SDS011;66102;48.542;-2.970;2023-04-19T03:31:47;67.30;;;31.98;;
77136;SDS011;66102;48.542;-2.970;2023-04-19T03:34:14;74.70;;;33.35;;
77136;SDS011;66102;48.542;-2.970;2023-04-19T03:36:40;74.00;;;32.22;;
77136;SDS011;66102;48.542;-2.970;2023-04-19T03:39:06;73.65;;;33.80;;
77136;SDS011;66102;48.542;-2.970;2023-04-19T03:41:32;81.18;;;36.33;;
77136;SDS011;66102;48.542;-2.970;2023-04-19T03:43:58;90.18;;;39.80;;
77136;SDS011;66102;48.542;-2.970;2023-04-19T03:46:24;94.63;;;39.60;;
77136;SDS011;66102;48.542;-2.970;2023-04-19T03:48:50;81.95;;;35.20;;
77136;SDS011;66102;48.542;-2.970;2023-04-19T03:51:17;67.60;;;33.42;;
77136;SDS011;66102;48.542;-2.970;2023-04-19T03:53:43;70.45;;;33.72;;
77136;SDS011;66102;48.542;-2.970;2023-04-19T03:56:09;80.60;;;34.53;;
77136;SDS011;66102;48.542;-2.970;2023-04-19T03:58:35;89.13;;;38.15;;
77136;SDS011;66102;48.542;-2.970;2023-04-19T04:01:02;80.53;;;35.35;;
77136;SDS011;66102;48.542;-2.970;2023-04-19T04:03:28;96.40;;;39.80;;
77136;SDS011;66102;48.542;-2.970;2023-04-19T04:05:54;91.90;;;39.00;;
77136;SDS011;66102;48.542;-2.970;2023-04-19T04:08:20;85.43;;;35.90;;
77136;SDS011;66102;48.542;-2.970;2023-04-19T04:10:46;99.72;;;38.90;;
77136;SDS011;66102;48.542;-2.970;2023-04-19T04:13:12;84.07;;;36.20;;
77136;SDS011;66102;48.542;-2.970;2023-04-19T04:15:38;99.22;;;39.50;;
77136;SDS011;66102;48.542;-2.970;2023-04-19T04:18:04;78.43;;;36.33;;
77136;SDS011;66102;48.542;-2.970;2023-04-19T04:20:30;102.18;;;38.20;;
77136;SDS011;66102;48.542;-2.970;2023-04-19T04:22:56;97.13;;;37.60;;
77136;SDS011;66102;48.542;-2.970;2023-04-19T04:25:22;100.22;;;39.35;;
77136;SDS011;66102;48.542;-2.970;2023-04-19T04:27:50;104.03;;;38.70;;
77136;SDS011;66102;48.542;-2.970;2023-04-19T04:30:16;97.82;;;40.30;;
77136;SDS011;66102;48.542;-2.970;2023-04-19T04:32:42;97.28;;;36.90;;
77136;SDS011;66102;48.542;-2.970;2023-04-19T04:35:09;80.85;;;33.25;;
77136;SDS011;66102;48.542;-2.970;2023-04-19T04:37:35;78.93;;;35.08;;
77136;SDS011;66102;48.542;-2.970;2023-04-19T04:40:02;86.68;;;37.35;;
77136;SDS011;66102;48.542;-2.970;2023-04-19T04:42:32;84.53;;;34.47;;
77136;SDS011;66102;48.542;-2.970;2023-04-19T04:44:58;82.50;;;35.83;;
77136;SDS011;66102;48.542;-2.970;2023-04-19T04:47:29;87.65;;;33.90;;
77136;SDS011;66102;48.542;-2.970;2023-04-19T04:49:55;75.03;;;33.10;;
77136;SDS011;66102;48.542;-2.970;2023-04-19T04:52:21;84.82;;;36.60;;
77136;SDS011;66102;48.542;-2.970;2023-04-19T04:54:47;77.28;;;32.45;;
77136;SDS011;66102;48.542;-2.970;2023-04-19T04:57:14;80.95;;;35.28;;
77136;SDS011;66102;48.542;-2.970;2023-04-19T04:59:40;84.20;;;35.83;;
77136;SDS011;66102;48.542;-2.970;2023-04-19T05:02:06;72.28;;;33.67;;
77136;SDS011;66102;48.542;-2.970;2023-04-19T05:04:32;78.30;;;32.40;;
77136;SDS011;66102;48.542;-2.970;2023-04-19T05:06:58;77.90;;;33.40;;
77136;SDS011;66102;48.542;-2.970;2023-04-19T05:09:24;60.72;;;29.02;;
77136;SDS011;66102;48.542;-2.970;2023-04-19T05:11:50;72.05;;;31.50;;
77136;SDS011;66102;48.542;-2.970;2023-04-19T05:14:16;80.57;;;33.97;;
77136;SDS011;66102;48.542;-2.970;2023-04-19T05:16:42;80.80;;;32.92;;
77136;SDS011;66102;48.542;-2.970;2023-04-19T05:19:08;66.95;;;32.00;;
77136;SDS011;66102;48.542;-2.970;2023-04-19T05:21:34;73.47;;;32.72;;
77136;SDS011;66102;48.542;-2.970;2023-04-19T05:24:00;73.47;;;32.17;;
77136;SDS011;66102;48.542;-2.970;2023-04-19T05:26:26;66.68;;;30.33;;
77136;SDS011;66102;48.542;-2.970;2023-04-19T05:28:53;69.60;;;30.52;;
77136;SDS011;66102;48.542;-2.970;2023-04-19T05:31:19;63.17;;;29.63;;
77136;SDS011;66102;48.542;-2.970;2023-04-19T05:33:45;65.70;;;30.13;;
77136;SDS011;66102;48.542;-2.970;2023-04-19T05:36:11;55.22;;;27.23;;
77136;SDS011;66102;48.542;-2.970;2023-04-19T05:38:37;62.53;;;29.30;;
77136;SDS011;66102;48.542;-2.970;2023-04-19T05:41:03;51.92;;;25.77;;
77136;SDS011;66102;48.542;-2.970;2023-04-19T05:43:29;61.05;;;28.90;;
77136;SDS011;66102;48.542;-2.970;2023-04-19T05:45:56;57.22;;;28.50;;
77136;SDS011;66102;48.542;-2.970;2023-04-19T05:48:22;58.47;;;27.45;;
77136;SDS011;66102;48.542;-2.970;2023-04-19T05:50:49;65.18;;;28.90;;
77136;SDS011;66102;48.542;-2.970;2023-04-19T05:53:18;72.20;;;30.20;;
77136;SDS011;66102;48.542;-2.970;2023-04-19T05:55:44;68.05;;;31.27;;
77136;SDS011;66102;48.542;-2.970;2023-04-19T05:58:12;67.45;;;28.35;;
77136;SDS011;66102;48.542;-2.970;2023-04-19T06:00:38;58.22;;;26.45;;
77136;SDS011;66102;48.542;-2.970;2023-04-19T06:03:04;45.67;;;25.23;;
77136;SDS011;66102;48.542;-2.970;2023-04-19T06:05:30;60.22;;;25.27;;
77136;SDS011;66102;48.542;-2.970;2023-04-19T06:07:56;57.83;;;28.00;;
77136;SDS011;66102;48.542;-2.970;2023-04-19T06:10:23;58.10;;;26.92;;
77136;SDS011;66102;48.542;-2.970;2023-04-19T06:12:49;57.50;;;28.33;;
77136;SDS011;66102;48.542;-2.970;2023-04-19T06:15:15;53.60;;;26.67;;
77136;SDS011;66102;48.542;-2.970;2023-04-19T06:17:41;53.70;;;24.80;;
77136;SDS011;66102;48.542;-2.970;2023-04-19T06:20:07;45.45;;;24.05;;
77136;SDS011;66102;48.542;-2.970;2023-04-19T06:22:34;49.55;;;24.10;;
77136;SDS011;66102;48.542;-2.970;2023-04-19T06:25:00;53.75;;;27.63;;
77136;SDS011;66102;48.542;-2.970;2023-04-19T06:27:27;46.00;;;25.20;;
77136;SDS011;66102;48.542;-2.970;2023-04-19T06:29:53;43.53;;;24.60;;
77136;SDS011;66102;48.542;-2.970;2023-04-19T06:32:19;50.20;;;25.80;;
77136;SDS011;66102;48.542;-2.970;2023-04-19T06:34:45;49.63;;;25.05;;
77136;SDS011;66102;48.542;-2.970;2023-04-19T06:37:11;40.90;;;21.60;;
77136;SDS011;66102;48.542;-2.970;2023-04-19T06:39:37;47.45;;;23.35;;
77136;SDS011;66102;48.542;-2.970;2023-04-19T06:42:03;51.15;;;23.67;;
77136;SDS011;66102;48.542;-2.970;2023-04-19T06:44:30;49.17;;;22.50;;
77136;SDS011;66102;48.542;-2.970;2023-04-19T06:46:56;53.30;;;24.88;;
77136;SDS011;66102;48.542;-2.970;2023-04-19T06:49:22;44.17;;;23.27;;
77136;SDS011;66102;48.542;-2.970;2023-04-19T06:51:48;46.65;;;25.70;;
77136;SDS011;66102;48.542;-2.970;2023-04-19T06:54:14;47.22;;;24.98;;
77136;SDS011;66102;48.542;-2.970;2023-04-19T06:56:41;53.75;;;26.42;;
77136;SDS011;66102;48.542;-2.970;2023-04-19T06:59:09;46.03;;;23.95;;
77136;SDS011;66102;48.542;-2.970;2023-04-19T07:01:36;49.33;;;24.60;;
77136;SDS011;66102;48.542;-2.970;2023-04-19T07:04:02;49.70;;;23.65;;
77136;SDS011;66102;48.542;-2.970;2023-04-19T07:06:29;48.90;;;26.60;;
77136;SDS011;66102;48.542;-2.970;2023-04-19T07:08:55;44.63;;;23.60;;
77136;SDS011;66102;48.542;-2.970;2023-04-19T07:11:21;43.53;;;22.90;;
77136;SDS011;66102;48.542;-2.970;2023-04-19T07:13:47;52.05;;;25.35;;
77136;SDS011;66102;48.542;-2.970;2023-04-19T07:16:13;49.80;;;25.13;;
77136;SDS011;66102;48.542;-2.970;2023-04-19T07:18:39;41.75;;;24.25;;
77136;SDS011;66102;48.542;-2.970;2023-04-19T07:21:05;50.90;;;26.15;;
77136;SDS011;66102;48.542;-2.970;2023-04-19T07:23:31;48.17;;;24.45;;
77136;SDS011;66102;48.542;-2.970;2023-04-19T07:25:57;44.40;;;24.50;;
77136;SDS011;66102;48.542;-2.970;2023-04-19T07:28:23;43.78;;;22.65;;
77136;SDS011;66102;48.542;-2.970;2023-04-19T07:30:49;46.78;;;24.92;;
77136;SDS011;66102;48.542;-2.970;2023-04-19T07:33:15;46.53;;;25.27;;
77136;SDS011;66102;48.542;-2.970;2023-04-19T07:35:41;43.50;;;22.95;;
77136;SDS011;66102;48.542;-2.970;2023-04-19T07:38:07;48.10;;;25.85;;
77136;SDS011;66102;48.542;-2.970;2023-04-19T07:40:33;41.97;;;22.15;;
77136;SDS011;66102;48.542;-2.970;2023-04-19T07:42:59;45.90;;;24.85;;
77136;SDS011;66102;48.542;-2.970;2023-04-19T07:45:25;47.65;;;26.70;;
77136;SDS011;66102;48.542;-2.970;2023-04-19T07:47:51;43.90;;;25.17;;
77136;SDS011;66102;48.542;-2.970;2023-04-19T07:50:17;48.03;;;27.20;;
77136;SDS011;66102;48.542;-2.970;2023-04-19T07:52:44;46.65;;;25.73;;
77136;SDS011;66102;48.542;-2.970;2023-04-19T07:55:10;54.42;;;25.48;;
77136;SDS011;66102;48.542;-2.970;2023-04-19T07:57:36;47.25;;;27.60;;
77136;SDS011;66102;48.542;-2.970;2023-04-19T08:00:02;46.83;;;25.30;;
77136;SDS011;66102;48.542;-2.970;2023-04-19T08:02:29;43.30;;;23.88;;
77136;SDS011;66102;48.542;-2.970;2023-04-19T08:04:55;45.58;;;23.98;;
77136;SDS011;66102;48.542;-2.970;2023-04-19T08:07:21;44.72;;;23.67;;
77136;SDS011;66102;48.542;-2.970;2023-04-19T08:09:48;46.53;;;25.88;;
77136;SDS011;66102;48.542;-2.970;2023-04-19T08:12:14;48.42;;;25.42;;
77136;SDS011;66102;48.542;-2.970;2023-04-19T08:14:42;45.95;;;26.83;;
77136;SDS011;66102;48.542;-2.970;2023-04-19T08:17:08;40.97;;;23.27;;
77136;SDS011;66102;48.542;-2.970;2023-04-19T08:19:34;45.60;;;26.35;;
77136;SDS011;66102;48.542;-2.970;2023-04-19T08:22:01;39.88;;;23.27;;
77136;SDS011;66102;48.542;-2.970;2023-04-19T08:24:28;45.88;;;24.85;;
77136;SDS011;66102;48.542;-2.970;2023-04-19T08:26:55;40.47;;;24.73;;
77136;SDS011;66102;48.542;-2.970;2023-04-19T08:29:21;38.22;;;22.70;;
77136;SDS011;66102;48.542;-2.970;2023-04-19T08:31:48;40.15;;;21.70;;
77136;SDS011;66102;48.542;-2.970;2023-04-19T08:34:14;37.28;;;21.60;;
77136;SDS011;66102;48.542;-2.970;2023-04-19T08:36:40;38.22;;;22.90;;
77136;SDS011;66102;48.542;-2.970;2023-04-19T08:39:06;34.92;;;19.98;;
77136;SDS011;66102;48.542;-2.970;2023-04-19T08:41:32;35.78;;;21.38;;
77136;SDS011;66102;48.542;-2.970;2023-04-19T08:43:59;32.28;;;20.02;;
77136;SDS011;66102;48.542;-2.970;2023-04-19T08:46:25;34.53;;;21.65;;
77136;SDS011;66102;48.542;-2.970;2023-04-19T08:48:52;35.10;;;21.77;;
77136;SDS011;66102;48.542;-2.970;2023-04-19T08:51:18;32.40;;;20.50;;
77136;SDS011;66102;48.542;-2.970;2023-04-19T08:53:45;34.55;;;21.15;;
77136;SDS011;66102;48.542;-2.970;2023-04-19T08:56:13;35.42;;;20.50;;
77136;SDS011;66102;48.542;-2.970;2023-04-19T08:58:39;34.90;;;19.63;;
77136;SDS011;66102;48.542;-2.970;2023-04-19T09:01:06;34.72;;;20.30;;
77136;SDS011;66102;48.542;-2.970;2023-04-19T09:03:33;35.83;;;22.30;;
77136;SDS011;66102;48.542;-2.970;2023-04-19T09:06:02;33.42;;;20.65;;
77136;SDS011;66102;48.542;-2.970;2023-04-19T09:08:28;33.35;;;21.45;;
77136;SDS011;66102;48.542;-2.970;2023-04-19T09:10:58;32.05;;;19.63;;
77136;SDS011;66102;48.542;-2.970;2023-04-19T09:13:26;33.92;;;21.98;;
77136;SDS011;66102;48.542;-2.970;2023-04-19T09:15:52;32.80;;;20.02;;
77136;SDS011;66102;48.542;-2.970;2023-04-19T09:18:21;32.42;;;20.20;;
77136;SDS011;66102;48.542;-2.970;2023-04-19T09:20:48;36.97;;;21.58;;
77136;SDS011;66102;48.542;-2.970;2023-04-19T09:23:21;35.78;;;20.85;;
77136;SDS011;66102;48.542;-2.970;2023-04-19T09:25:56;38.20;;;20.45;;
77136;SDS011;66102;48.542;-2.970;2023-04-19T09:28:26;37.17;;;21.75;;
77136;SDS011;66102;48.542;-2.970;2023-04-19T09:30:53;39.63;;;21.45;;
77136;SDS011;66102;48.542;-2.970;2023-04-19T09:35:58;32.85;;;20.23;;
77136;SDS011;66102;48.542;-2.970;2023-04-19T09:38:24;35.88;;;20.58;;
77136;SDS011;66102;48.542;-2.970;2023-04-19T09:40:51;40.55;;;21.85;;
77136;SDS011;66102;48.542;-2.970;2023-04-19T09:43:26;33.33;;;19.95;;
77136;SDS011;66102;48.542;-2.970;2023-04-19T09:45:52;32.80;;;20.10;;
77136;SDS011;66102;48.542;-2.970;2023-04-19T09:48:18;30.55;;;20.67;;
77136;SDS011;66102;48.542;-2.970;2023-04-19T09:53:20;35.83;;;19.63;;
77136;SDS011;66102;48.542;-2.970;2023-04-19T09:55:46;36.08;;;21.85;;
77136;SDS011;66102;48.542;-2.970;2023-04-19T09:58:12;32.65;;;19.10;;
77136;SDS011;66102;48.542;-2.970;2023-04-19T10:00:40;32.20;;;19.80;;
77136;SDS011;66102;48.542;-2.970;2023-04-19T10:03:06;31.10;;;18.67;;
77136;SDS011;66102;48.542;-2.970;2023-04-19T10:05:35;31.02;;;18.73;;
77136;SDS011;66102;48.542;-2.970;2023-04-19T10:08:02;31.25;;;18.45;;
77136;SDS011;66102;48.542;-2.970;2023-04-19T10:10:28;30.38;;;18.60;;
77136;SDS011;66102;48.542;-2.970;2023-04-19T10:12:56;30.48;;;18.20;;
77136;SDS011;66102;48.542;-2.970;2023-04-19T10:15:24;31.70;;;20.23;;
77136;SDS011;66102;48.542;-2.970;2023-04-19T10:17:51;37.60;;;21.88;;
77136;SDS011;66102;48.542;-2.970;2023-04-19T10:20:19;29.58;;;18.60;;
77136;SDS011;66102;48.542;-2.970;2023-04-19T10:22:47;32.83;;;19.25;;
77136;SDS011;66102;48.542;-2.970;2023-04-19T10:25:14;33.58;;;19.60;;
77136;SDS011;66102;48.542;-2.970;2023-04-19T10:27:43;34.17;;;19.80;;
77136;SDS011;66102;48.542;-2.970;2023-04-19T10:30:20;33.90;;;20.92;;
77136;SDS011;66102;48.542;-2.970;2023-04-19T10:32:54;33.03;;;20.23;;
77136;SDS011;66102;48.542;-2.970;2023-04-19T10:35:36;37.40;;;20.50;;
77136;SDS011;66102;48.542;-2.970;2023-04-19T10:38:03;34.03;;;19.58;;
77136;SDS011;66102;48.542;-2.970;2023-04-19T10:43:21;33.42;;;20.77;;
77136;SDS011;66102;48.542;-2.970;2023-04-19T10:45:47;33.17;;;20.13;;
77136;SDS011;66102;48.542;-2.970;2023-04-19T10:51:00;34.40;;;20.13;;
77136;SDS011;66102;48.542;-2.970;2023-04-19T10:56:12;32.50;;;19.10;;
77136;SDS011;66102;48.542;-2.970;2023-04-19T11:01:42;36.25;;;21.20;;
77136;SDS011;66102;48.542;-2.970;2023-04-19T11:04:09;33.35;;;21.77;;
77136;SDS011;66102;48.542;-2.970;2023-04-19T11:07:17;32.78;;;20.30;;
77136;SDS011;66102;48.542;-2.970;2023-04-19T11:09:27;37.25;;;22.70;;
77136;SDS011;66102;48.542;-2.970;2023-04-19T11:11:58;36.55;;;20.92;;
77136;SDS011;66102;48.542;-2.970;2023-04-19T11:14:25;34.83;;;20.95;;
77136;SDS011;66102;48.542;-2.970;2023-04-19T11:16:51;36.70;;;21.52;;
77136;SDS011;66102;48.542;-2.970;2023-04-19T11:19:17;29.73;;;18.33;;
77136;SDS011;66102;48.542;-2.970;2023-04-19T11:21:44;33.42;;;21.42;;
77136;SDS011;66102;48.542;-2.970;2023-04-19T11:24:11;32.22;;;18.73;;
77136;SDS011;66102;48.542;-2.970;2023-04-19T11:26:37;29.55;;;18.73;;
77136;SDS011;66102;48.542;-2.970;2023-04-19T11:29:03;34.33;;;22.13;;
77136;SDS011;66102;48.542;-2.970;2023-04-19T11:31:32;34.78;;;21.90;;
77136;SDS011;66102;48.542;-2.970;2023-04-19T11:33:58;30.25;;;18.13;;
77136;SDS011;66102;48.542;-2.970;2023-04-19T11:36:25;32.47;;;21.60;;
77136;SDS011;66102;48.542;-2.970;2023-04-19T11:38:51;34.65;;;19.90;;
77136;SDS011;66102;48.542;-2.970;2023-04-19T11:41:18;29.55;;;19.88;;
77136;SDS011;66102;48.542;-2.970;2023-04-19T11:43:44;29.65;;;18.67;;
77136;SDS011;66102;48.542;-2.970;2023-04-19T11:46:11;30.63;;;19.08;;
77136;SDS011;66102;48.542;-2.970;2023-04-19T11:48:38;32.40;;;19.77;;
77136;SDS011;66102;48.542;-2.970;2023-04-19T11:51:04;29.65;;;19.40;;
77136;SDS011;66102;48.542;-2.970;2023-04-19T11:53:31;31.77;;;19.17;;
77136;SDS011;66102;48.542;-2.970;2023-04-19T11:56:04;31.60;;;18.08;;
77136;SDS011;66102;48.542;-2.970;2023-04-19T11:58:41;32.38;;;19.83;;
77136;SDS011;66102;48.542;-2.970;2023-04-19T12:06:13;31.35;;;19.05;;
77136;SDS011;66102;48.542;-2.970;2023-04-19T12:08:46;34.72;;;20.98;;
77136;SDS011;66102;48.542;-2.970;2023-04-19T12:11:13;32.88;;;20.35;;
77136;SDS011;66102;48.542;-2.970;2023-04-19T12:13:39;33.78;;;20.35;;
77136;SDS011;66102;48.542;-2.970;2023-04-19T12:16:06;32.10;;;19.75;;
77136;SDS011;66102;48.542;-2.970;2023-04-19T12:21:08;29.92;;;17.88;;
77136;SDS011;66102;48.542;-2.970;2023-04-19T12:23:35;32.03;;;19.63;;
77136;SDS011;66102;48.542;-2.970;2023-04-19T12:26:05;31.35;;;19.40;;
77136;SDS011;66102;48.542;-2.970;2023-04-19T12:28:31;33.10;;;19.02;;
77136;SDS011;66102;48.542;-2.970;2023-04-19T12:30:57;29.50;;;17.52;;
77136;SDS011;66102;48.542;-2.970;2023-04-19T12:33:23;31.02;;;18.35;;
77136;SDS011;66102;48.542;-2.970;2023-04-19T12:35:49;33.63;;;19.83;;
77136;SDS011;66102;48.542;-2.970;2023-04-19T12:38:15;27.38;;;17.27;;
77136;SDS011;66102;48.542;-2.970;2023-04-19T12:40:41;31.13;;;18.15;;
77136;SDS011;66102;48.542;-2.970;2023-04-19T12:43:08;31.60;;;18.40;;
77136;SDS011;66102;48.542;-2.970;2023-04-19T12:45:34;29.50;;;18.80;;
77136;SDS011;66102;48.542;-2.970;2023-04-19T12:48:00;27.40;;;17.20;;
77136;SDS011;66102;48.542;-2.970;2023-04-19T12:50:26;29.08;;;18.42;;
77136;SDS011;66102;48.542;-2.970;2023-04-19T12:52:52;32.58;;;19.45;;
77136;SDS011;66102;48.542;-2.970;2023-04-19T12:55:18;29.30;;;18.85;;
77136;SDS011;66102;48.542;-2.970;2023-04-19T12:57:44;33.00;;;19.58;;
77136;SDS011;66102;48.542;-2.970;2023-04-19T13:00:10;30.15;;;18.25;;
77136;SDS011;66102;48.542;-2.970;2023-04-19T13:02:36;28.75;;;18.05;;
77136;SDS011;66102;48.542;-2.970;2023-04-19T13:05:03;28.38;;;17.90;;
77136;SDS011;66102;48.542;-2.970;2023-04-19T13:07:29;30.63;;;19.40;;
77136;SDS011;66102;48.542;-2.970;2023-04-19T13:09:55;27.70;;;16.98;;
77136;SDS011;66102;48.542;-2.970;2023-04-19T13:12:21;31.98;;;19.05;;
77136;SDS011;66102;48.542;-2.970;2023-04-19T13:14:48;28.85;;;17.13;;
77136;SDS011;66102;48.542;-2.970;2023-04-19T13:17:16;26.75;;;16.70;;
77136;SDS011;66102;48.542;-2.970;2023-04-19T13:19:42;29.80;;;17.48;;
77136;SDS011;66102;48.542;-2.970;2023-04-19T13:22:08;26.30;;;16.42;;
77136;SDS011;66102;48.542;-2.970;2023-04-19T13:24:34;27.25;;;16.45;;
77136;SDS011;66102;48.542;-2.970;2023-04-19T13:27:00;27.25;;;17.75;;
77136;SDS011;66102;48.542;-2.970;2023-04-19T13:29:26;27.92;;;18.20;;
77136;SDS011;66102;48.542;-2.970;2023-04-19T13:31:53;28.88;;;17.63;;
77136;SDS011;66102;48.542;-2.970;2023-04-19T13:34:19;30.65;;;18.17;;
77136;SDS011;66102;48.542;-2.970;2023-04-19T13:36:45;31.05;;;18.83;;
77136;SDS011;66102;48.542;-2.970;2023-04-19T13:39:11;28.08;;;18.10;;
77136;SDS011;66102;48.542;-2.970;2023-04-19T13:41:37;29.23;;;17.42;;
77136;SDS011;66102;48.542;-2.970;2023-04-19T13:44:03;29.58;;;18.10;;
77136;SDS011;66102;48.542;-2.970;2023-04-19T13:46:29;25.50;;;16.27;;
77136;SDS011;66102;48.542;-2.970;2023-04-19T13:48:56;28.92;;;16.65;;
77136;SDS011;66102;48.542;-2.970;2023-04-19T13:51:22;29.60;;;19.08;;
77136;SDS011;66102;48.542;-2.970;2023-04-19T13:53:48;30.83;;;18.50;;
77136;SDS011;66102;48.542;-2.970;2023-04-19T13:56:14;29.85;;;19.58;;
77136;SDS011;66102;48.542;-2.970;2023-04-19T13:58:40;33.05;;;17.30;;
77136;SDS011;66102;48.542;-2.970;2023-04-19T14:01:06;29.92;;;17.55;;
77136;SDS011;66102;48.542;-2.970;2023-04-19T14:03:33;29.50;;;18.23;;
77136;SDS011;66102;48.542;-2.970;2023-04-19T14:05:59;27.88;;;16.65;;
77136;SDS011;66102;48.542;-2.970;2023-04-19T14:08:25;29.48;;;17.67;;
77136;SDS011;66102;48.542;-2.970;2023-04-19T14:10:51;32.15;;;16.60;;
77136;SDS011;66102;48.542;-2.970;2023-04-19T14:13:18;28.63;;;16.75;;
77136;SDS011;66102;48.542;-2.970;2023-04-19T14:15:44;26.17;;;16.05;;
77136;SDS011;66102;48.542;-2.970;2023-04-19T14:18:10;31.40;;;19.60;;
77136;SDS011;66102;48.542;-2.970;2023-04-19T14:20:36;28.05;;;16.08;;
77136;SDS011;66102;48.542;-2.970;2023-04-19T14:23:02;29.73;;;16.88;;
77136;SDS011;66102;48.542;-2.970;2023-04-19T14:25:28;28.88;;;17.15;;
77136;SDS011;66102;48.542;-2.970;2023-04-19T14:27:55;26.60;;;16.48;;
77136;SDS011;66102;48.542;-2.970;2023-04-19T14:30:21;27.40;;;17.33;;